Time;durP1;ratioP1;P1;durP2;ratioP2;P2;SDS_P1;SDS_P2;PMS_P1;PMS_P2;Temp;Humidity;BMP_temperature;BMP_pressure;BME280_temperature;BME280_humidity;BME280_pressure;Samples;Min_cycle;Max_cycle;Signal;HPM_P1;HPM_P2
2023/04/03 00:01:35;;;;;;;3.47;2.27;;;7.40;99.90;;;;;;20827832;28;20025;-76
2023/04/03 00:11:35;;;;;;;3.53;2.30;;;7.20;99.90;;;;;;20827274;28;20033;-77
2023/04/03 00:21:36;;;;;;;2.90;2.03;;;7.30;99.90;;;;;;20828796;28;20033;-77
2023/04/03 00:31:37;;;;;;;3.50;2.20;;;7.10;99.90;;;;;;20825125;28;20072;-77
2023/04/03 00:41:38;;;;;;;7.03;2.50;;;7.00;99.90;;;;;;20824499;28;20083;-77
2023/04/03 00:51:38;;;;;;;;;;;6.70;99.90;;;;;;20824064;28;20491;-77
2023/04/03 01:01:39;;;;;;;2.07;1.50;;;6.60;99.90;;;;;;20824623;28;19924;-77
2023/04/03 01:11:40;;;;;;;;;;;6.60;99.90;;;;;;20822549;28;20692;-77
2023/04/03 01:21:50;;;;;;;2.83;1.88;;;6.40;99.90;;;;;;20824529;28;19912;-76
2023/04/03 01:31:54;;;;;;;2.97;1.88;;;6.20;99.90;;;;;;20806267;28;20029;-76
2023/04/03 01:41:55;;;;;;;2.55;1.80;;;6.20;99.90;;;;;;20822734;28;20033;-76
2023/04/03 01:52:09;;;;;;;2.75;1.80;;;6.00;99.90;;;;;;20828501;28;20415;-76
2023/04/03 02:02:12;;;;;;;;;;;5.90;99.90;;;;;;20836738;28;20037;-77
2023/04/03 02:12:12;;;;;;;2.15;1.40;;;5.80;99.90;;;;;;20815010;28;20291;-76
2023/04/03 02:22:14;;;;;;;;;;;5.80;99.90;;;;;;20830024;28;20057;-77
2023/04/03 02:32:14;;;;;;;1.88;1.15;;;5.60;99.90;;;;;;20833461;28;19944;-77
2023/04/03 02:42:16;;;;;;;2.35;1.55;;;5.60;99.90;;;;;;20833720;28;20021;-77
2023/04/03 02:52:17;;;;;;;1.92;1.65;;;5.50;99.90;;;;;;20815404;28;20029;-77
2023/04/03 03:02:18;;;;;;;;;;;5.50;99.90;;;;;;20832900;28;20049;-76
2023/04/03 03:12:21;;;;;;;4.03;1.73;;;5.40;99.90;;;;;;20831876;28;19913;-76
2023/04/03 03:22:22;;;;;;;4.57;2.47;;;5.30;99.90;;;;;;20829312;28;20280;-77
2023/04/03 03:32:22;;;;;;;5.72;2.80;;;5.30;99.90;;;;;;20829818;28;20037;-76
2023/04/03 03:42:23;;;;;;;;;;;5.20;99.90;;;;;;20817119;28;20365;-76
2023/04/03 03:52:25;;;;;;;8.32;2.60;;;5.10;99.90;;;;;;20777412;28;19955;-76
2023/04/03 04:02:26;;;;;;;4.93;3.15;;;5.10;99.90;;;;;;20826710;28;20041;-75
2023/04/03 04:12:27;;;;;;;9.82;4.13;;;5.00;99.90;;;;;;20802354;28;20029;-75
2023/04/03 04:22:29;;;;;;;6.05;3.35;;;4.90;99.90;;;;;;20819441;28;20033;-76
2023/04/03 04:32:30;;;;;;;6.57;3.72;;;5.00;99.90;;;;;;20812659;28;20122;-75
2023/04/03 04:42:31;;;;;;;6.82;3.92;;;5.10;99.90;;;;;;20778355;28;20381;-76
2023/04/03 04:52:32;;;;;;;5.82;4.03;;;5.00;99.90;;;;;;20725672;28;20034;-76
2023/04/03 05:02:33;;;;;;;7.35;3.85;;;5.00;99.90;;;;;;20741701;28;20420;-76
2023/04/03 05:12:34;;;;;;;6.57;3.90;;;4.70;99.90;;;;;;20815870;28;20129;-75
2023/04/03 05:22:37;;;;;;;7.50;4.47;;;4.50;99.90;;;;;;20821286;28;20041;-76
2023/04/03 05:32:42;;;;;;;8.43;4.85;;;4.60;99.90;;;;;;20837222;28;20036;-76
2023/04/03 05:42:58;;;;;;;10.85;5.88;;;4.60;99.90;;;;;;20821787;28;20061;-77
2023/04/03 05:53:02;;;;;;;12.05;6.47;;;4.70;99.90;;;;;;20819645;28;20124;-79
2023/04/03 06:03:05;;;;;;;15.30;9.98;;;4.40;99.90;;;;;;20817820;28;20033;-77
2023/04/03 06:13:06;;;;;;;11.02;6.22;;;4.30;99.90;;;;;;20874418;28;20039;-77
2023/04/03 06:23:07;;;;;;;8.05;4.90;;;4.20;99.90;;;;;;20918671;28;20053;-77
2023/04/03 06:33:08;;;;;;;8.95;4.75;;;4.30;99.90;;;;;;20924211;28;20025;-79
2023/04/03 06:43:09;;;;;;;8.05;4.15;;;4.30;99.90;;;;;;20886949;28;20061;-77
2023/04/03 06:53:10;;;;;;;6.35;3.72;;;4.10;99.90;;;;;;20857425;28;20037;-78
2023/04/03 07:03:11;;;;;;;5.05;3.65;;;4.00;99.90;;;;;;20857728;28;20037;-78
2023/04/03 07:13:12;;;;;;;6.57;3.92;;;3.90;99.90;;;;;;20858165;28;20029;-79
2023/04/03 07:23:12;;;;;;;5.25;3.42;;;4.00;99.90;;;;;;20855901;28;20033;-77
2023/04/03 07:33:15;;;;;;;7.07;4.40;;;4.00;99.90;;;;;;20855015;28;20026;-79
2023/04/03 07:43:17;;;;;;;6.57;3.90;;;4.10;99.90;;;;;;20855938;28;20037;-78
2023/04/03 07:53:18;;;;;;;6.53;4.28;;;4.20;99.90;;;;;;20855831;28;20033;-78
2023/04/03 08:03:19;;;;;;;7.30;3.58;;;4.30;99.90;;;;;;20862401;28;20312;-78
2023/04/03 08:13:22;;;;;;;6.50;3.60;;;4.50;99.90;;;;;;20853390;28;20045;-78
2023/04/03 08:23:22;;;;;;;6.38;3.65;;;4.50;99.90;;;;;;20857408;28;20033;-77
2023/04/03 08:33:23;;;;;;;5.07;3.45;;;4.70;99.90;;;;;;20859208;28;20033;-77
2023/04/03 08:43:30;;;;;;;6.63;3.20;;;5.10;99.90;;;;;;20850339;28;20029;-79
2023/04/03 08:53:36;;;;;;;6.72;3.17;;;5.30;99.90;;;;;;20850066;28;20037;-78
2023/04/03 09:03:39;;;;;;;3.88;2.20;;;5.40;99.90;;;;;;20863081;28;20059;-79
2023/04/03 09:14:05;;;;;;;3.08;2.17;;;6.40;99.90;;;;;;20865813;28;20037;-77
2023/04/03 09:24:07;;;;;;;4.95;1.90;;;6.80;99.90;;;;;;20855287;28;20083;-79
2023/04/03 09:34:31;;;;;;;7.38;3.95;;;6.50;99.90;;;;;;20865362;28;20026;-79
2023/04/03 09:44:36;;;;;;;3.50;2.30;;;6.60;99.90;;;;;;20846358;28;20037;-79
2023/04/03 09:54:39;;;;;;;4.90;1.98;;;6.30;99.90;;;;;;20870005;28;20412;-78
2023/04/03 10:04:41;;;;;;;2.33;1.58;;;6.30;99.90;;;;;;20863200;28;20385;-77
2023/04/03 10:14:58;;;;;;;2.80;1.92;;;6.40;99.90;;;;;;20840809;28;20480;-79
2023/04/03 10:25:10;;;;;;;2.72;1.73;;;6.80;99.90;;;;;;20849223;28;20037;-78
2023/04/03 10:35:53;;;;;;;2.55;1.60;;;6.80;99.90;;;;;;20853334;28;20034;-77
2023/04/03 10:45:54;;;;;;;1.88;1.40;;;6.70;99.90;;;;;;20841040;28;20046;-77
2023/04/03 10:56:36;;;;;;;3.43;1.67;;;7.00;99.90;;;;;;20829669;28;20034;-77
2023/04/03 11:06:41;;;;;;;;;;;7.10;99.90;;;;;;20839404;28;20033;-77
2023/04/03 11:17:12;;;;;;;5.35;3.33;;;7.70;99.90;;;;;;20830096;28;20000;-76
2023/04/03 11:27:18;;;;;;;3.25;1.90;;;7.50;99.90;;;;;;20828286;28;20083;-77
2023/04/03 11:37:40;;;;;;;4.90;2.72;;;7.50;99.90;;;;;;20835413;28;20060;-76
2023/04/03 11:47:52;;;;;;;3.15;1.85;;;7.40;99.90;;;;;;20829932;28;20037;-75
2023/04/03 11:58:00;;;;;;;6.03;1.98;;;7.10;99.90;;;;;;20828226;28;20109;-76
2023/04/03 12:08:26;;;;;;;6.82;1.70;;;7.50;99.90;;;;;;20826727;28;20051;-77
2023/04/03 12:18:52;;;;;;;3.50;2.15;;;7.60;99.90;;;;;;20829252;28;20051;-77
2023/04/03 12:28:55;;;;;;;3.60;1.63;;;7.50;99.90;;;;;;20820581;28;20124;-77
2023/04/03 12:39:14;;;;;;;6.22;3.13;;;7.50;99.90;;;;;;20825251;28;20495;-77
2023/04/03 12:49:33;;;;;;;4.38;2.20;;;7.40;99.90;;;;;;20823813;28;20408;-77
2023/04/03 12:59:36;;;;;;;5.20;2.88;;;7.30;99.90;;;;;;20825088;28;20076;-77
2023/04/03 13:09:37;;;;;;;3.72;1.98;;;7.30;99.90;;;;;;20824720;28;20105;-77
2023/04/03 13:19:38;;;;;;;3.55;1.95;;;7.40;99.90;;;;;;20825919;28;20061;-77
2023/04/03 13:29:40;;;;;;;4.38;2.30;;;7.10;99.90;;;;;;20826475;28;20095;-77
2023/04/03 13:39:40;;;;;;;2.83;2.00;;;7.00;99.90;;;;;;20781622;28;20132;-77
2023/04/03 13:50:03;;;;;;;3.67;2.33;;;7.50;99.90;;;;;;20858278;28;20047;-77
2023/04/03 14:00:37;;;;;;;2.75;2.10;;;7.50;99.90;;;;;;20881701;28;20033;-77
2023/04/03 14:10:38;;;;;;;3.95;2.15;;;7.10;99.90;;;;;;20836337;28;20040;-78
2023/04/03 14:20:39;;;;;;;2.85;1.90;;;7.10;99.90;;;;;;20908006;28;20052;-77
2023/04/03 14:30:40;;;;;;;2.70;1.80;;;7.40;99.90;;;;;;20918098;28;20021;-77
2023/04/03 14:40:41;;;;;;;2.03;1.70;;;7.50;99.90;;;;;;20883677;28;20084;-77
2023/04/03 14:50:42;;;;;;;2.07;1.50;;;7.20;99.90;;;;;;20835231;28;20037;-77
2023/04/03 15:00:43;;;;;;;4.07;2.27;;;7.20;99.90;;;;;;20812196;28;20566;-77
2023/04/03 15:10:44;;;;;;;4.25;1.80;;;7.40;99.90;;;;;;20823310;28;20093;-78
2023/04/03 15:20:45;;;;;;;2.47;1.83;;;7.30;99.90;;;;;;20820701;28;20026;-75
2023/04/03 15:30:46;;;;;;;1.92;1.55;;;6.90;99.90;;;;;;20835433;28;20033;-78
2023/04/03 15:40:47;;;;;;;4.28;2.28;;;6.80;99.90;;;;;;20835005;28;20400;-76
2023/04/03 15:50:48;;;;;;;2.58;1.67;;;7.10;99.90;;;;;;20835484;28;20421;-77
2023/04/03 16:00:49;;;;;;;5.53;2.10;;;7.10;99.90;;;;;;20834026;28;20116;-77
2023/04/03 16:10:50;;;;;;;3.05;1.77;;;7.00;99.90;;;;;;20833289;28;20017;-76
2023/04/03 16:20:51;;;;;;;3.28;1.50;;;6.60;99.90;;;;;;20834550;28;20111;-77
2023/04/03 16:30:52;;;;;;;;;;;6.60;99.90;;;;;;20829331;28;20026;-76
2023/04/03 16:40:56;;;;;;;3.72;1.52;;;6.50;99.90;;;;;;20826327;28;19920;-76
2023/04/03 16:50:57;;;;;;;4.20;2.08;;;6.30;99.90;;;;;;20827115;28;20033;-76
2023/04/03 17:00:58;;;;;;;;;;;6.30;99.90;;;;;;20826342;28;20089;-77
2023/04/03 17:10:58;;;;;;;4.78;2.00;;;6.20;99.90;;;;;;20832246;22;20401;-82
2023/04/03 17:21:00;;;;;;;4.40;2.00;;;6.20;99.90;;;;;;20804430;28;20462;-79
2023/04/03 17:31:05;;;;;;;3.88;1.95;;;6.10;99.90;;;;;;20852538;28;20287;-81
2023/04/03 17:41:08;;;;;;;3.80;2.00;;;5.90;99.90;;;;;;20811985;28;20486;-80
2023/04/03 17:51:11;;;;;;;4.22;1.90;;;5.70;99.90;;;;;;20730507;28;20034;-79
2023/04/03 18:01:18;;;;;;;2.80;1.90;;;5.60;99.90;;;;;;20747649;28;20038;-79
2023/04/03 18:11:22;;;;;;;3.55;2.30;;;5.50;99.90;;;;;;20788863;28;20072;-79
2023/04/03 18:21:22;;;;;;;3.17;2.00;;;5.30;99.90;;;;;;20844010;28;20536;-79
2023/04/03 18:31:24;;;;;;;;;;;5.20;99.90;;;;;;20850299;28;20379;-81
2023/04/03 18:41:29;;;;;;;4.65;2.20;;;5.10;99.90;;;;;;20809515;28;19920;-78
2023/04/03 18:51:30;;;;;;;4.10;2.15;;;5.10;99.90;;;;;;20766682;28;20050;-79
2023/04/03 19:01:31;;;;;;;;;;;5.00;99.90;;;;;;20730128;28;20034;-80
2023/04/03 19:11:32;;;;;;;3.30;2.10;;;4.90;99.90;;;;;;20762391;28;19913;-79
2023/04/03 19:21:33;;;;;;;;;;;4.80;99.90;;;;;;20760740;28;20026;-81
2023/04/03 19:31:36;;;;;;;3.47;2.53;;;4.70;99.90;;;;;;20743759;28;19916;-78
2023/04/03 19:41:39;;;;;;;5.18;2.78;;;4.40;99.90;;;;;;20759477;28;20026;-81
2023/04/03 19:51:40;;;;;;;3.45;2.60;;;4.30;99.90;;;;;;20738934;28;20053;-81
2023/04/03 20:01:41;;;;;;;3.95;2.28;;;4.30;99.90;;;;;;20755686;28;20038;-80
2023/04/03 20:11:46;;;;;;;3.30;2.35;;;4.20;99.90;;;;;;20752691;28;20521;-80
2023/04/03 20:21:46;;;;;;;4.80;2.17;;;4.20;99.90;;;;;;20742406;28;20034;-80
2023/04/03 20:31:48;;;;;;;9.25;2.65;;;4.20;99.90;;;;;;20749229;28;20034;-79
2023/04/03 20:41:49;;;;;;;3.88;2.20;;;4.20;99.90;;;;;;20731764;28;20061;-81
2023/04/03 20:51:51;;;;;;;3.45;1.90;;;4.00;99.90;;;;;;20734892;28;20405;-81
2023/04/03 21:01:52;;;;;;;4.28;2.80;;;3.80;99.90;;;;;;20751724;28;20030;-80
2023/04/03 21:12:31;;;;;;;4.90;2.47;;;3.60;99.90;;;;;;20732074;28;20038;-81
2023/04/03 21:22:32;;;;;;;5.25;2.90;;;3.50;99.90;;;;;;20733141;28;20038;-79
2023/04/03 21:32:33;;;;;;;7.85;2.40;;;3.40;99.90;;;;;;20751570;28;20060;-79
2023/04/03 21:42:33;;;;;;;4.40;1.98;;;3.20;99.90;;;;;;20733009;28;20034;-81
2023/04/03 21:52:34;;;;;;;4.88;2.00;;;3.10;99.90;;;;;;20730629;28;20034;-80
2023/04/03 22:02:39;;;;;;;7.40;2.10;;;3.00;99.90;;;;;;20730148;28;20057;-80
2023/04/03 22:12:41;;;;;;;6.13;2.88;;;3.00;99.90;;;;;;20741915;28;20049;-80
2023/04/03 22:22:41;;;;;;;4.05;2.28;;;2.90;99.90;;;;;;20762641;28;20040;-80
2023/04/03 22:32:42;;;;;;;8.25;2.33;;;2.70;99.90;;;;;;20726670;28;20036;-80
2023/04/03 22:42:47;;;;;;;5.93;2.78;;;2.60;99.90;;;;;;20760309;28;20034;-81
2023/04/03 22:52:47;;;;;;;5.43;2.08;;;2.50;99.90;;;;;;20743813;28;20513;-79
2023/04/03 23:02:48;;;;;;;3.85;1.70;;;2.40;99.90;;;;;;20745598;28;20641;-79
2023/04/03 23:12:49;;;;;;;6.68;2.05;;;2.30;99.90;;;;;;20756101;28;20110;-83
2023/04/03 23:22:50;;;;;;;3.20;1.88;;;2.20;99.90;;;;;;20754686;28;20072;-81
2023/04/03 23:32:51;;;;;;;4.63;1.92;;;2.20;99.90;;;;;;20736914;28;20030;-80
2023/04/03 23:42:52;;;;;;;3.28;1.80;;;2.10;99.90;;;;;;20753461;28;20125;-80
2023/04/03 23:52:52;;;;;;;3.58;1.88;;;2.00;99.90;;;;;;20752985;28;20025;-80
